createdAt,value
2022-10-19T00:01:15.152Z,10.45
2022-10-19T00:03:43.682Z,10.48
2022-10-19T00:06:12.666Z,10.52
2022-10-19T00:08:41.032Z,10.55
2022-10-19T00:11:09.456Z,10.55
2022-10-19T00:13:39.327Z,10.48
2022-10-19T00:16:11.745Z,10.45
2022-10-19T00:18:39.845Z,10.51
2022-10-19T00:21:09.118Z,10.49
2022-10-19T00:23:37.643Z,10.51
2022-10-19T00:26:06.302Z,10.36
2022-10-19T00:28:34.747Z,10.44
2022-10-19T00:33:53.032Z,10.41
2022-10-19T00:39:10.780Z,10.43
2022-10-19T00:41:39.183Z,10.37
2022-10-19T00:44:08.491Z,10.31
2022-10-19T00:46:38.386Z,10.33
2022-10-19T00:49:10.890Z,10.36
2022-10-19T00:51:41.798Z,10.35
2022-10-19T00:54:10.815Z,10.28
2022-10-19T00:56:41.299Z,10.32
2022-10-19T00:59:10.860Z,10.29
2022-10-19T01:01:40.822Z,10.29
2022-10-19T01:04:10.359Z,10.30
2022-10-19T01:06:43.551Z,10.26
2022-10-19T01:09:11.847Z,10.28
2022-10-19T01:11:44.326Z,10.31
2022-10-19T01:14:23.049Z,10.35
2022-10-19T01:16:55.289Z,10.38
2022-10-19T01:19:46.958Z,10.42
2022-10-19T01:22:23.319Z,10.46
2022-10-19T01:24:59.141Z,10.48
2022-10-19T01:27:46.544Z,10.48
2022-10-19T01:30:17.798Z,10.51
2022-10-19T01:32:53.749Z,10.55
2022-10-19T01:35:26.254Z,10.60
2022-10-19T01:37:59.650Z,10.61
2022-10-19T01:40:30.237Z,10.62
2022-10-19T01:43:02.202Z,10.61
2022-10-19T01:45:35.273Z,10.58
2022-10-19T01:48:04.917Z,10.56
2022-10-19T01:50:35.668Z,10.53
2022-10-19T01:53:05.624Z,10.56
2022-10-19T01:55:35.026Z,10.52
2022-10-19T01:58:08.263Z,10.51
2022-10-19T02:00:40.721Z,10.49
2022-10-19T02:03:10.639Z,10.47
2022-10-19T02:05:40.678Z,10.40
2022-10-19T02:08:12.188Z,10.38
2022-10-19T02:10:41.449Z,10.32
2022-10-19T02:13:09.473Z,10.27
2022-10-19T02:16:00.932Z,10.15
2022-10-19T02:18:32.837Z,10.16
2022-10-19T02:21:03.271Z,10.17
2022-10-19T02:23:31.280Z,10.14
2022-10-19T02:26:00.004Z,10.12
2022-10-19T02:28:29.320Z,10.06
2022-10-19T02:30:59.640Z,10.03
2022-10-19T02:33:28.191Z,10.05
2022-10-19T02:35:56.700Z,10.08
2022-10-19T02:38:31.686Z,10.09
2022-10-19T02:41:05.923Z,10.09
2022-10-19T02:43:35.551Z,10.13
2022-10-19T02:46:07.461Z,10.16
2022-10-19T02:48:37.823Z,10.20
2022-10-19T02:51:06.112Z,10.22
2022-10-19T02:53:34.209Z,10.26
2022-10-19T02:56:02.200Z,10.30
2022-10-19T02:58:30.326Z,10.33
2022-10-19T03:00:58.343Z,10.36
2022-10-19T03:03:28.152Z,10.38
2022-10-19T03:05:56.804Z,10.39
2022-10-19T03:08:24.859Z,10.42
2022-10-19T03:10:53.042Z,10.45
2022-10-19T03:13:21.211Z,10.46
2022-10-19T03:15:49.664Z,10.48
2022-10-19T03:18:17.762Z,10.51
2022-10-19T03:20:47.364Z,10.52
2022-10-19T03:23:15.371Z,10.56
2022-10-19T03:25:43.466Z,10.59
2022-10-19T03:28:11.492Z,10.60
2022-10-19T03:30:39.493Z,10.61
2022-10-19T03:33:07.404Z,10.57
2022-10-19T03:35:35.319Z,10.46
2022-10-19T03:38:05.047Z,10.34
2022-10-19T03:40:33.229Z,10.20
2022-10-19T03:43:01.202Z,10.16
2022-10-19T03:45:29.416Z,10.11
2022-10-19T03:47:57.948Z,10.18
2022-10-19T03:50:26.156Z,10.26
2022-10-19T03:52:54.442Z,10.31
2022-10-19T03:55:24.069Z,10.36
2022-10-19T03:57:54.092Z,10.40
2022-10-19T04:00:22.077Z,10.40
2022-10-19T04:02:50.195Z,10.42
2022-10-19T04:05:18.978Z,10.30
2022-10-19T04:07:47.004Z,10.45
2022-10-19T04:10:15.443Z,10.46
2022-10-19T04:12:45.158Z,10.49
2022-10-19T04:15:13.157Z,10.50
2022-10-19T04:17:42.045Z,10.48
2022-10-19T04:20:11.512Z,10.51
2022-10-19T04:22:39.816Z,10.51
2022-10-19T04:25:09.566Z,10.56
2022-10-19T04:27:37.645Z,10.58
2022-10-19T04:30:08.268Z,10.58
2022-10-19T04:32:36.614Z,10.60
2022-10-19T04:35:04.816Z,10.44
2022-10-19T04:37:32.962Z,10.63
2022-10-19T04:40:01.617Z,10.65
2022-10-19T04:42:30.988Z,10.62
2022-10-19T04:44:59.020Z,10.64
2022-10-19T04:47:30.189Z,10.66
2022-10-19T04:49:58.369Z,10.66
2022-10-19T04:52:26.931Z,10.67
2022-10-19T04:54:55.201Z,10.72
2022-10-19T04:57:23.349Z,10.75
2022-10-19T04:59:51.571Z,10.78
2022-10-19T05:02:20.202Z,10.83
2022-10-19T05:04:51.498Z,10.89
2022-10-19T05:07:19.615Z,10.90
2022-10-19T05:09:48.315Z,10.93
2022-10-19T05:12:16.486Z,10.88
2022-10-19T05:14:45.103Z,10.92
2022-10-19T05:17:14.378Z,10.96
2022-10-19T05:19:42.595Z,10.99
2022-10-19T05:22:13.483Z,10.99
2022-10-19T05:24:42.483Z,10.99
2022-10-19T05:27:11.445Z,10.96
2022-10-19T05:29:40.496Z,10.93
2022-10-19T05:32:09.176Z,10.99
2022-10-19T05:34:37.544Z,11.00
2022-10-19T05:37:06.141Z,11.03
2022-10-19T05:39:35.749Z,11.08
2022-10-19T05:42:03.742Z,11.09
2022-10-19T05:44:32.407Z,11.07
2022-10-19T05:47:01.168Z,10.95
2022-10-19T05:49:29.736Z,10.87
2022-10-19T05:52:00.820Z,10.95
2022-10-19T05:54:29.202Z,10.91
2022-10-19T05:56:59.186Z,10.94
2022-10-19T05:59:27.613Z,10.91
2022-10-19T06:01:56.401Z,10.84
2022-10-19T06:04:24.673Z,10.87
2022-10-19T06:06:52.857Z,10.83
2022-10-19T06:09:21.243Z,10.74
2022-10-19T06:11:49.489Z,10.80
2022-10-19T06:14:19.300Z,10.80
2022-10-19T06:16:47.410Z,10.79
2022-10-19T06:19:15.556Z,10.74
2022-10-19T06:21:45.902Z,10.68
2022-10-19T06:24:14.239Z,10.60
2022-10-19T06:26:42.560Z,10.49
2022-10-19T06:29:11.944Z,10.36
2022-10-19T06:31:42.085Z,10.36
2022-10-19T06:34:10.218Z,10.32
2022-10-19T06:36:38.793Z,10.26
2022-10-19T06:39:08.237Z,10.30
2022-10-19T06:41:36.423Z,10.27
2022-10-19T06:44:04.464Z,10.27
2022-10-19T06:46:34.089Z,10.23
2022-10-19T06:49:04.130Z,10.18
2022-10-19T06:54:17.603Z,10.25
2022-10-19T06:56:45.819Z,10.28
2022-10-19T06:59:14.943Z,10.27
2022-10-19T07:01:43.218Z,10.29
2022-10-19T07:04:13.332Z,10.31
2022-10-19T07:06:41.565Z,10.31
2022-10-19T07:09:10.152Z,10.31
2022-10-19T07:11:42.396Z,10.33
2022-10-19T07:14:14.276Z,10.31
2022-10-19T07:16:42.746Z,10.31
2022-10-19T07:19:13.845Z,10.22
2022-10-19T07:21:44.290Z,10.18
2022-10-19T07:24:12.363Z,10.16
2022-10-19T07:26:40.357Z,10.15
2022-10-19T07:29:08.900Z,10.13
2022-10-19T07:31:37.173Z,10.15
2022-10-19T07:34:06.042Z,10.15
2022-10-19T07:36:37.489Z,10.13
2022-10-19T07:39:06.866Z,10.12
2022-10-19T07:41:35.675Z,10.11
2022-10-19T07:44:04.803Z,10.07
2022-10-19T07:46:34.227Z,10.10
2022-10-19T07:49:02.780Z,10.14
2022-10-19T07:51:31.128Z,10.16
2022-10-19T07:54:00.988Z,10.16
2022-10-19T07:56:29.686Z,10.18
2022-10-19T07:58:58.405Z,10.21
2022-10-19T08:01:27.713Z,10.17
2022-10-19T08:04:43.286Z,10.20
2022-10-19T08:06:45.707Z,10.21
2022-10-19T08:09:40.107Z,10.25
2022-10-19T08:12:05.278Z,10.31
2022-10-19T08:14:33.991Z,10.36
2022-10-19T08:17:02.153Z,10.36
2022-10-19T08:19:30.312Z,10.27
2022-10-19T08:21:58.985Z,10.18
2022-10-19T08:24:29.840Z,10.13
2022-10-19T08:26:59.028Z,10.10
2022-10-19T08:29:30.579Z,10.10
2022-10-19T08:31:59.794Z,10.04
2022-10-19T08:34:28.490Z,10.04
2022-10-19T08:36:57.413Z,10.10
2022-10-19T08:39:25.852Z,10.14
2022-10-19T08:42:01.110Z,10.18
2022-10-19T08:44:36.447Z,10.19
2022-10-19T08:47:07.722Z,10.25
2022-10-19T08:49:36.892Z,10.23
2022-10-19T08:52:07.688Z,10.28
2022-10-19T08:54:42.593Z,10.29
2022-10-19T08:57:17.953Z,10.35
2022-10-19T08:59:51.472Z,10.38
2022-10-19T09:02:24.677Z,10.43
2022-10-19T09:04:58.030Z,10.43
2022-10-19T09:07:28.397Z,10.49
2022-10-19T09:09:58.471Z,10.53
2022-10-19T09:12:33.843Z,10.57
2022-10-19T09:15:04.154Z,10.59
2022-10-19T09:17:32.977Z,10.55
2022-10-19T09:20:04.164Z,10.56
2022-10-19T09:22:34.696Z,10.47
2022-10-19T09:25:04.670Z,10.38
2022-10-19T09:27:38.146Z,10.38
2022-10-19T09:30:07.465Z,10.43
2022-10-19T09:32:38.117Z,10.48
2022-10-19T09:35:08.154Z,10.53
2022-10-19T09:37:42.140Z,10.61
2022-10-19T09:40:16.580Z,10.66
2022-10-19T09:42:46.449Z,10.72
2022-10-19T09:45:18.520Z,10.74
2022-10-19T09:47:49.463Z,10.74
2022-10-19T09:50:20.113Z,10.71
2022-10-19T09:52:49.060Z,10.77
2022-10-19T09:55:21.622Z,10.80
2022-10-19T09:57:52.494Z,10.73
2022-10-19T10:00:21.141Z,10.75
2022-10-19T10:02:52.903Z,10.82
2022-10-19T10:05:21.424Z,10.89
2022-10-19T10:07:50.493Z,10.84
2022-10-19T10:10:23.726Z,10.65
2022-10-19T10:12:57.025Z,10.32
2022-10-19T10:15:27.676Z,10.19
2022-10-19T10:17:57.482Z,9.81
2022-10-19T10:20:29.071Z,9.40
2022-10-19T10:22:59.191Z,9.08
2022-10-19T10:25:32.416Z,8.81
2022-10-19T10:28:19.299Z,8.81
2022-10-19T10:30:48.866Z,8.72
2022-10-19T10:33:27.058Z,8.69
2022-10-19T10:36:06.828Z,8.72
2022-10-19T10:38:37.012Z,8.59
2022-10-19T10:41:09.319Z,8.59
2022-10-19T10:46:34.151Z,8.65
2022-10-19T10:49:04.467Z,8.64
2022-10-19T10:51:35.156Z,8.63
2022-10-19T10:54:21.324Z,8.68
2022-10-19T10:57:06.996Z,8.71
2022-10-19T10:59:43.065Z,8.79
2022-10-19T11:02:19.547Z,9.03
2022-10-19T11:04:52.354Z,9.20
2022-10-19T11:07:23.999Z,9.35
2022-10-19T11:09:54.382Z,9.52
2022-10-19T11:12:34.293Z,9.76
2022-10-19T11:15:13.540Z,10.07
2022-10-19T11:17:49.500Z,10.16
2022-10-19T11:20:18.074Z,10.18
2022-10-19T11:22:48.377Z,10.19
2022-10-19T11:25:26.086Z,10.24
2022-10-19T11:28:00.935Z,10.39
2022-10-19T11:30:32.324Z,10.59
2022-10-19T11:33:03.236Z,10.79
2022-10-19T11:35:38.629Z,11.01
2022-10-19T11:38:22.702Z,11.28
2022-10-19T11:41:17.262Z,11.73
2022-10-19T11:43:56.013Z,11.93
2022-10-19T11:46:30.528Z,11.66
2022-10-19T11:49:10.295Z,11.42
2022-10-19T11:51:41.075Z,11.14
2022-10-19T11:54:21.748Z,11.09
2022-10-19T11:57:03.182Z,10.95
2022-10-19T11:59:43.155Z,10.95
2022-10-19T12:02:24.076Z,10.99
2022-10-19T12:04:55.753Z,11.02
2022-10-19T12:07:50.956Z,11.05
2022-10-19T12:10:23.410Z,10.99
2022-10-19T12:12:54.808Z,10.88
2022-10-19T12:15:28.535Z,10.66
2022-10-19T12:18:00.720Z,10.47
2022-10-19T12:20:31.827Z,10.39
2022-10-19T12:23:00.789Z,10.33
2022-10-19T12:25:29.476Z,10.30
2022-10-19T12:27:58.820Z,10.26
2022-10-19T12:30:27.170Z,10.25
2022-10-19T12:33:08.190Z,10.25
2022-10-19T12:35:50.596Z,10.17
2022-10-19T12:38:21.853Z,10.11
2022-10-19T12:40:55.420Z,10.02
2022-10-19T12:43:28.918Z,10.00
2022-10-19T12:46:04.090Z,9.96
2022-10-19T12:48:36.602Z,9.90
2022-10-19T12:51:15.577Z,9.88
2022-10-19T12:53:47.266Z,9.84
2022-10-19T12:56:19.021Z,9.85
2022-10-19T12:58:50.597Z,9.82
2022-10-19T13:01:20.828Z,9.81
2022-10-19T13:03:52.921Z,9.78
2022-10-19T13:06:32.516Z,9.71
2022-10-19T13:09:02.047Z,9.74
2022-10-19T13:11:30.621Z,9.70
2022-10-19T13:14:02.891Z,9.60
2022-10-19T13:16:35.037Z,9.60
2022-10-19T13:19:05.427Z,9.57
2022-10-19T13:21:46.610Z,9.55
2022-10-19T13:24:28.617Z,9.51
2022-10-19T13:27:25.468Z,9.50
2022-10-19T13:29:54.998Z,9.48
2022-10-19T13:32:34.426Z,9.49
2022-10-19T13:35:17.666Z,9.47
2022-10-19T13:37:47.546Z,9.46
2022-10-19T13:40:24.528Z,9.46
2022-10-19T13:42:59.778Z,9.46
2022-10-19T13:45:28.807Z,9.45
2022-10-19T13:48:00.393Z,9.48
2022-10-19T13:50:34.447Z,9.50
2022-10-19T13:53:16.216Z,9.50
2022-10-19T13:55:51.858Z,9.51
2022-10-19T13:58:41.961Z,9.50
2022-10-19T14:01:19.174Z,9.51
2022-10-19T14:03:58.174Z,9.51
2022-10-19T14:06:33.261Z,9.50
2022-10-19T14:09:19.736Z,9.51
2022-10-19T14:11:51.937Z,9.50
2022-10-19T14:14:21.259Z,9.52
2022-10-19T14:16:51.893Z,9.48
2022-10-19T14:19:27.033Z,9.50
2022-10-19T14:21:57.030Z,9.50
2022-10-19T14:24:30.330Z,9.48
2022-10-19T14:27:05.389Z,9.48
2022-10-19T14:29:45.056Z,9.49
2022-10-19T14:32:14.433Z,9.50
2022-10-19T14:34:42.833Z,9.51
2022-10-19T14:37:15.065Z,9.52
2022-10-19T14:39:44.058Z,9.51
2022-10-19T14:42:14.540Z,9.52
2022-10-19T14:44:43.462Z,9.52
2022-10-19T14:47:21.210Z,9.51
2022-10-19T14:49:50.355Z,9.51
2022-10-19T14:52:22.923Z,9.50
2022-10-19T14:54:57.571Z,9.46
2022-10-19T14:57:30.881Z,9.48
2022-10-19T15:00:02.288Z,9.46
2022-10-19T15:02:41.438Z,9.47
2022-10-19T15:05:19.083Z,9.46
2022-10-19T15:07:48.275Z,9.46
2022-10-19T15:10:21.626Z,9.33
2022-10-19T15:12:57.579Z,9.33
2022-10-19T15:15:27.828Z,9.25
2022-10-19T15:17:57.332Z,9.25
2022-10-19T15:20:27.729Z,9.25
2022-10-19T15:22:56.571Z,9.23
2022-10-19T15:25:26.740Z,9.25
2022-10-19T15:27:58.314Z,9.22
2022-10-19T15:30:29.023Z,9.23
2022-10-19T15:33:09.338Z,9.25
2022-10-19T15:35:38.294Z,9.25
2022-10-19T15:38:10.274Z,9.27
2022-10-19T15:40:39.488Z,9.25
2022-10-19T15:43:40.746Z,9.14
2022-10-19T15:46:22.560Z,9.21
2022-10-19T15:48:55.233Z,9.25
2022-10-19T15:51:35.127Z,9.29
2022-10-19T15:54:05.169Z,9.32
2022-10-19T15:56:35.182Z,9.34
2022-10-19T15:59:05.037Z,9.35
2022-10-19T16:01:35.434Z,9.29
2022-10-19T16:04:03.610Z,9.24
2022-10-19T16:06:32.981Z,9.17
2022-10-19T16:09:01.254Z,9.16
2022-10-19T16:11:30.204Z,9.15
2022-10-19T16:13:58.788Z,9.10
2022-10-19T16:16:29.764Z,9.08
2022-10-19T16:19:00.853Z,8.87
2022-10-19T16:21:31.145Z,8.91
2022-10-19T16:24:01.684Z,8.94
2022-10-19T16:26:32.261Z,8.90
2022-10-19T16:29:01.769Z,8.88
2022-10-19T16:31:31.758Z,8.87
2022-10-19T16:34:01.622Z,8.83
2022-10-19T16:36:29.777Z,8.82
2022-10-19T16:38:58.037Z,8.81
2022-10-19T16:41:26.461Z,8.85
2022-10-19T16:43:58.272Z,8.89
2022-10-19T16:46:27.265Z,8.79
2022-10-19T16:48:55.426Z,8.83
2022-10-19T16:51:36.870Z,8.77
2022-10-19T16:54:06.536Z,8.76
2022-10-19T16:56:35.963Z,8.73
2022-10-19T16:59:05.182Z,8.79
2022-10-19T17:01:34.254Z,8.76
2022-10-19T17:04:02.507Z,8.75
2022-10-19T17:06:31.164Z,8.67
2022-10-19T17:09:30.163Z,8.57
2022-10-19T17:11:50.102Z,8.42
2022-10-19T17:14:18.709Z,8.36
2022-10-19T17:16:47.133Z,8.30
2022-10-19T17:19:15.360Z,8.25
2022-10-19T17:21:43.454Z,8.17
2022-10-19T17:24:21.007Z,8.20
2022-10-19T17:26:50.457Z,8.23
2022-10-19T17:29:18.722Z,8.23
2022-10-19T17:31:47.343Z,8.20
2022-10-19T17:34:15.389Z,8.18
2022-10-19T17:36:45.112Z,8.18
2022-10-19T17:39:17.983Z,8.19
2022-10-19T17:41:46.869Z,8.19
2022-10-19T17:44:15.097Z,8.22
2022-10-19T17:46:43.163Z,8.27
2022-10-19T17:49:11.814Z,8.24
2022-10-19T17:51:40.483Z,8.31
2022-10-19T17:54:09.866Z,8.36
2022-10-19T17:56:40.084Z,8.36
2022-10-19T17:59:09.455Z,8.37
2022-10-19T18:01:38.627Z,8.36
2022-10-19T18:04:07.791Z,8.39
2022-10-19T18:06:36.849Z,8.37
2022-10-19T18:09:06.313Z,8.42
2022-10-19T18:11:37.402Z,8.45
2022-10-19T18:14:09.659Z,8.48
2022-10-19T18:16:39.260Z,8.48
2022-10-19T18:19:09.261Z,8.49
2022-10-19T18:21:39.981Z,8.50
2022-10-19T18:24:12.711Z,8.47
2022-10-19T18:26:44.234Z,8.47
2022-10-19T18:29:16.702Z,8.48
2022-10-19T18:31:51.896Z,8.54
2022-10-19T18:34:21.550Z,8.61
2022-10-19T18:36:50.234Z,8.60
2022-10-19T18:39:19.043Z,8.60
2022-10-19T18:41:50.033Z,8.57
2022-10-19T18:44:26.946Z,8.59
2022-10-19T18:46:57.235Z,8.60
2022-10-19T18:49:26.881Z,8.62
2022-10-19T18:51:56.082Z,8.55
2022-10-19T18:54:24.738Z,8.54
2022-10-19T18:56:53.427Z,8.52
2022-10-19T18:59:24.175Z,8.52
2022-10-19T19:01:53.819Z,8.55
2022-10-19T19:04:22.798Z,8.56
2022-10-19T19:06:51.341Z,8.52
2022-10-19T19:09:19.759Z,8.48
2022-10-19T19:11:49.063Z,8.49
2022-10-19T19:14:18.336Z,8.54
2022-10-19T19:16:51.992Z,8.52
2022-10-19T19:19:20.981Z,8.44
2022-10-19T19:21:50.063Z,8.39
2022-10-19T19:24:20.210Z,8.35
2022-10-19T19:26:51.158Z,8.38
2022-10-19T19:29:20.150Z,8.37
2022-10-19T19:31:50.285Z,8.39
2022-10-19T19:34:19.123Z,8.34
2022-10-19T19:36:48.802Z,8.34
2022-10-19T19:39:24.494Z,8.32
2022-10-19T19:41:55.709Z,8.34
2022-10-19T19:44:25.206Z,8.39
2022-10-19T19:46:54.821Z,8.37
2022-10-19T19:49:24.727Z,8.40
2022-10-19T19:51:53.904Z,8.38
2022-10-19T19:54:25.427Z,8.33
2022-10-19T19:56:55.387Z,8.40
2022-10-19T19:59:24.809Z,8.43
2022-10-19T20:01:54.969Z,8.36
2022-10-19T20:04:25.055Z,8.44
2022-10-19T20:06:53.853Z,8.46
2022-10-19T20:09:22.382Z,8.30
2022-10-19T20:11:51.164Z,8.49
2022-10-19T20:14:20.113Z,8.44
2022-10-19T20:16:48.684Z,8.42
2022-10-19T20:19:22.770Z,8.47
2022-10-19T20:21:51.674Z,8.52
2022-10-19T20:24:20.129Z,8.52
2022-10-19T20:26:48.238Z,8.57
2022-10-19T20:29:16.813Z,8.55
2022-10-19T20:31:44.789Z,8.55
2022-10-19T20:34:14.331Z,8.48
2022-10-19T20:36:44.291Z,8.61
2022-10-19T20:39:12.904Z,8.57
2022-10-19T20:41:41.147Z,8.61
2022-10-19T20:44:10.022Z,8.64
2022-10-19T20:46:38.100Z,8.63
2022-10-19T20:49:07.740Z,8.67
2022-10-19T20:51:37.056Z,8.66
2022-10-19T20:54:07.923Z,8.67
2022-10-19T20:56:37.409Z,8.67
2022-10-19T20:59:08.181Z,8.66
2022-10-19T21:01:38.383Z,8.64
2022-10-19T21:04:07.909Z,8.47
2022-10-19T21:06:41.257Z,8.50
2022-10-19T21:09:12.143Z,8.52
2022-10-19T21:11:40.979Z,8.44
2022-10-19T21:14:12.032Z,8.46
2022-10-19T21:16:40.292Z,8.46
2022-10-19T21:19:10.347Z,8.42
2022-10-19T21:21:39.191Z,8.42
2022-10-19T21:24:09.136Z,8.39
2022-10-19T21:26:39.350Z,8.44
2022-10-19T21:29:10.302Z,8.47
2022-10-19T21:31:39.546Z,8.43
2022-10-19T21:34:10.509Z,8.42
2022-10-19T21:36:39.308Z,8.40
2022-10-19T21:39:07.592Z,8.37
2022-10-19T21:41:40.290Z,8.34
2022-10-19T21:44:11.439Z,8.33
2022-10-19T21:46:39.949Z,8.36
2022-10-19T21:49:08.181Z,8.35
2022-10-19T21:51:38.848Z,8.37
2022-10-19T21:54:09.087Z,8.34
2022-10-19T21:56:38.434Z,8.29
2022-10-19T21:59:08.110Z,8.32
2022-10-19T22:01:40.205Z,8.35
2022-10-19T22:04:10.576Z,8.33
2022-10-19T22:06:38.939Z,8.39
2022-10-19T22:09:08.494Z,8.40
2022-10-19T22:11:37.086Z,8.37
2022-10-19T22:14:05.499Z,8.31
2022-10-19T22:16:37.156Z,8.32
2022-10-19T22:19:06.501Z,8.30
2022-10-19T22:21:35.791Z,8.29
2022-10-19T22:24:05.089Z,8.28
2022-10-19T22:26:34.600Z,8.28
2022-10-19T22:29:03.026Z,8.27
2022-10-19T22:31:32.021Z,8.30
2022-10-19T22:34:03.151Z,8.32
2022-10-19T22:39:30.802Z,8.34
2022-10-19T22:41:59.555Z,8.30
2022-10-19T22:44:28.204Z,8.29
2022-10-19T22:46:57.277Z,8.26
2022-10-19T22:49:26.852Z,8.23
2022-10-19T22:52:02.964Z,8.23
2022-10-19T22:54:31.012Z,8.18
2022-10-19T22:59:50.291Z,8.11
2022-10-19T23:02:18.995Z,8.13
2022-10-19T23:04:48.687Z,8.15
2022-10-19T23:07:17.063Z,8.15
2022-10-19T23:09:45.975Z,8.16
2022-10-19T23:12:14.138Z,8.15
2022-10-19T23:14:43.114Z,8.13
2022-10-19T23:17:12.048Z,8.14
2022-10-19T23:19:40.341Z,8.10
2022-10-19T23:22:10.619Z,8.13
2022-10-19T23:24:39.336Z,8.15
2022-10-19T23:27:08.466Z,8.16
2022-10-19T23:29:36.855Z,8.10
2022-10-19T23:32:05.390Z,8.08
2022-10-19T23:34:36.426Z,8.10
2022-10-19T23:37:04.857Z,8.13
2022-10-19T23:39:35.579Z,8.16
2022-10-19T23:42:05.121Z,8.14
2022-10-19T23:44:33.688Z,8.07
2022-10-19T23:47:02.133Z,8.09
2022-10-19T23:49:31.687Z,8.01
2022-10-19T23:52:01.803Z,8.00
2022-10-19T23:54:30.128Z,7.89
2022-10-19T23:57:01.563Z,7.98
2022-10-19T23:59:30.089Z,7.96
